sensor_id;sensor_type;location;lat;lon;timestamp;pressure;altitude;pressure_sealevel;temperature;humidity
77299;BME280;66361;52.034;20.656;2023-06-26T00:02:11;99816.13;;;12.49;100.00
77299;BME280;66361;52.034;20.656;2023-06-26T00:06:14;99817.47;;;12.43;100.00
77299;BME280;66361;52.034;20.656;2023-06-26T00:10:18;99822.63;;;12.45;100.00
77299;BME280;66361;52.034;20.656;2023-06-26T00:14:21;99826.34;;;12.42;100.00
77299;BME280;66361;52.034;20.656;2023-06-26T00:18:24;99817.66;;;12.40;100.00
77299;BME280;66361;52.034;20.656;2023-06-26T00:22:27;99818.25;;;12.33;100.00
77299;BME280;66361;52.034;20.656;2023-06-26T00:26:35;99820.28;;;12.29;100.00
77299;BME280;66361;52.034;20.656;2023-06-26T00:30:38;99820.53;;;12.26;100.00
77299;BME280;66361;52.034;20.656;2023-06-26T00:34:41;99823.16;;;12.26;100.00
77299;BME280;66361;52.034;20.656;2023-06-26T00:38:48;99818.97;;;12.24;100.00
77299;BME280;66361;52.034;20.656;2023-06-26T00:42:53;99821.00;;;12.20;100.00
77299;BME280;66361;52.034;20.656;2023-06-26T00:46:59;99806.41;;;12.14;100.00
77299;BME280;66361;52.034;20.656;2023-06-26T00:51:02;99821.56;;;12.12;100.00
77299;BME280;66361;52.034;20.656;2023-06-26T00:55:05;99812.06;;;12.21;100.00
77299;BME280;66361;52.034;20.656;2023-06-26T00:59:10;99813.16;;;12.19;100.00
77299;BME280;66361;52.034;20.656;2023-06-26T01:03:13;99802.47;;;12.20;100.00
77299;BME280;66361;52.034;20.656;2023-06-26T01:07:16;99802.91;;;12.14;100.00
77299;BME280;66361;52.034;20.656;2023-06-26T01:11:25;99810.56;;;12.06;100.00
77299;BME280;66361;52.034;20.656;2023-06-26T01:15:29;99810.09;;;12.01;100.00
77299;BME280;66361;52.034;20.656;2023-06-26T01:19:33;99803.34;;;11.97;100.00
77299;BME280;66361;52.034;20.656;2023-06-26T01:23:39;99792.47;;;11.89;100.00
77299;BME280;66361;52.034;20.656;2023-06-26T01:27:52;99806.50;;;11.78;100.00
77299;BME280;66361;52.034;20.656;2023-06-26T01:31:57;99799.84;;;11.73;100.00
77299;BME280;66361;52.034;20.656;2023-06-26T01:36:01;99802.09;;;11.66;100.00
77299;BME280;66361;52.034;20.656;2023-06-26T01:40:05;99795.66;;;11.57;100.00
77299;BME280;66361;52.034;20.656;2023-06-26T01:48:39;99790.13;;;11.49;100.00
77299;BME280;66361;52.034;20.656;2023-06-26T01:52:48;99791.47;;;11.42;100.00
77299;BME280;66361;52.034;20.656;2023-06-26T01:56:55;99785.81;;;11.36;100.00
77299;BME280;66361;52.034;20.656;2023-06-26T02:01:00;99780.13;;;11.29;100.00
77299;BME280;66361;52.034;20.656;2023-06-26T02:05:05;99779.03;;;11.32;100.00
77299;BME280;66361;52.034;20.656;2023-06-26T02:09:08;99781.38;;;11.24;100.00
77299;BME280;66361;52.034;20.656;2023-06-26T02:13:12;99779.41;;;11.27;100.00
77299;BME280;66361;52.034;20.656;2023-06-26T02:17:15;99777.19;;;11.21;100.00
77299;BME280;66361;52.034;20.656;2023-06-26T02:21:20;99777.94;;;11.23;100.00
77299;BME280;66361;52.034;20.656;2023-06-26T02:25:25;99772.66;;;11.23;100.00
77299;BME280;66361;52.034;20.656;2023-06-26T02:29:28;99772.03;;;11.20;100.00
77299;BME280;66361;52.034;20.656;2023-06-26T02:33:31;99773.69;;;11.21;100.00
77299;BME280;66361;52.034;20.656;2023-06-26T02:37:36;99768.19;;;11.24;100.00
77299;BME280;66361;52.034;20.656;2023-06-26T02:41:39;99764.25;;;11.29;100.00
77299;BME280;66361;52.034;20.656;2023-06-26T02:45:43;99772.28;;;11.28;100.00
77299;BME280;66361;52.034;20.656;2023-06-26T02:49:46;99774.94;;;11.28;100.00
77299;BME280;66361;52.034;20.656;2023-06-26T02:53:52;99776.53;;;11.30;100.00
77299;BME280;66361;52.034;20.656;2023-06-26T02:57:55;99775.97;;;11.38;100.00
77299;BME280;66361;52.034;20.656;2023-06-26T03:01:58;99772.66;;;11.47;100.00
77299;BME280;66361;52.034;20.656;2023-06-26T03:06:01;99776.53;;;11.54;100.00
77299;BME280;66361;52.034;20.656;2023-06-26T03:10:06;99769.66;;;11.64;100.00
77299;BME280;66361;52.034;20.656;2023-06-26T03:14:10;99767.28;;;11.72;100.00
77299;BME280;66361;52.034;20.656;2023-06-26T03:18:13;99771.88;;;11.81;100.00
77299;BME280;66361;52.034;20.656;2023-06-26T03:22:15;99768.22;;;11.95;100.00
77299;BME280;66361;52.034;20.656;2023-06-26T03:26:20;99765.41;;;12.09;100.00
77299;BME280;66361;52.034;20.656;2023-06-26T03:30:29;99759.81;;;12.25;100.00
77299;BME280;66361;52.034;20.656;2023-06-26T03:34:32;99772.81;;;12.39;100.00
77299;BME280;66361;52.034;20.656;2023-06-26T03:38:35;99769.84;;;12.54;100.00
77299;BME280;66361;52.034;20.656;2023-06-26T03:42:40;99773.97;;;12.70;100.00
77299;BME280;66361;52.034;20.656;2023-06-26T03:46:43;99774.59;;;12.84;100.00
77299;BME280;66361;52.034;20.656;2023-06-26T03:50:46;99770.97;;;13.07;100.00
77299;BME280;66361;52.034;20.656;2023-06-26T03:54:49;99772.03;;;13.27;100.00
77299;BME280;66361;52.034;20.656;2023-06-26T03:58:54;99769.44;;;13.70;100.00
77299;BME280;66361;52.034;20.656;2023-06-26T04:02:57;99784.38;;;14.03;100.00
77299;BME280;66361;52.034;20.656;2023-06-26T04:07:00;99772.72;;;14.26;99.31
77299;BME280;66361;52.034;20.656;2023-06-26T04:11:03;99770.78;;;14.49;98.30
77299;BME280;66361;52.034;20.656;2023-06-26T04:15:09;99775.41;;;14.77;98.18
77299;BME280;66361;52.034;20.656;2023-06-26T04:19:12;99776.56;;;15.15;95.28
77299;BME280;66361;52.034;20.656;2023-06-26T04:23:16;99778.72;;;15.89;91.82
77299;BME280;66361;52.034;20.656;2023-06-26T04:27:19;99772.44;;;18.65;78.66
77299;BME280;66361;52.034;20.656;2023-06-26T04:31:24;99779.41;;;21.76;64.77
77299;BME280;66361;52.034;20.656;2023-06-26T04:35:27;99785.94;;;23.90;57.58
77299;BME280;66361;52.034;20.656;2023-06-26T04:39:30;99780.75;;;25.42;50.23
77299;BME280;66361;52.034;20.656;2023-06-26T04:43:33;99783.59;;;26.88;45.83
77299;BME280;66361;52.034;20.656;2023-06-26T04:47:38;99782.13;;;28.52;41.05
77299;BME280;66361;52.034;20.656;2023-06-26T04:51:41;99787.50;;;29.26;38.78
77299;BME280;66361;52.034;20.656;2023-06-26T04:55:44;99791.00;;;29.69;38.60
77299;BME280;66361;52.034;20.656;2023-06-26T04:59:48;99792.94;;;30.40;37.45
77299;BME280;66361;52.034;20.656;2023-06-26T05:03:52;99783.16;;;30.62;36.83
77299;BME280;66361;52.034;20.656;2023-06-26T05:07:55;99789.13;;;30.83;37.76
77299;BME280;66361;52.034;20.656;2023-06-26T05:11:59;99778.59;;;31.09;38.66
77299;BME280;66361;52.034;20.656;2023-06-26T05:16:02;99791.56;;;32.05;36.00
77299;BME280;66361;52.034;20.656;2023-06-26T05:20:08;99791.22;;;32.47;34.27
77299;BME280;66361;52.034;20.656;2023-06-26T05:24:13;99790.09;;;32.93;33.15
77299;BME280;66361;52.034;20.656;2023-06-26T05:28:18;99778.69;;;33.13;32.95
77299;BME280;66361;52.034;20.656;2023-06-26T05:32:22;99780.88;;;33.97;32.13
77299;BME280;66361;52.034;20.656;2023-06-26T05:36:28;99786.63;;;34.23;31.32
77299;BME280;66361;52.034;20.656;2023-06-26T05:40:32;99785.09;;;34.95;29.87
77299;BME280;66361;52.034;20.656;2023-06-26T05:44:36;99781.41;;;34.80;31.56
77299;BME280;66361;52.034;20.656;2023-06-26T05:48:40;99781.59;;;35.57;29.25
77299;BME280;66361;52.034;20.656;2023-06-26T05:52:45;99773.25;;;35.32;30.07
77299;BME280;66361;52.034;20.656;2023-06-26T05:56:50;99776.81;;;35.32;27.92
77299;BME280;66361;52.034;20.656;2023-06-26T06:00:55;99776.13;;;35.62;28.54
77299;BME280;66361;52.034;20.656;2023-06-26T06:04:59;99776.47;;;35.66;29.64
77299;BME280;66361;52.034;20.656;2023-06-26T06:09:03;99779.41;;;36.36;28.44
77299;BME280;66361;52.034;20.656;2023-06-26T06:13:06;99773.91;;;35.07;29.28
77299;BME280;66361;52.034;20.656;2023-06-26T06:17:09;99768.13;;;36.58;28.35
77299;BME280;66361;52.034;20.656;2023-06-26T06:21:13;99778.50;;;37.37;27.32
77299;BME280;66361;52.034;20.656;2023-06-26T06:25:17;99770.06;;;36.48;28.52
77299;BME280;66361;52.034;20.656;2023-06-26T06:29:21;99775.25;;;37.15;26.07
77299;BME280;66361;52.034;20.656;2023-06-26T06:33:24;99765.22;;;37.64;23.46
77299;BME280;66361;52.034;20.656;2023-06-26T06:37:27;99775.41;;;37.64;23.75
77299;BME280;66361;52.034;20.656;2023-06-26T06:41:34;99766.81;;;37.75;24.74
77299;BME280;66361;52.034;20.656;2023-06-26T06:45:38;99765.59;;;38.41;23.57
77299;BME280;66361;52.034;20.656;2023-06-26T06:49:41;99766.13;;;37.99;23.14
77299;BME280;66361;52.034;20.656;2023-06-26T06:53:44;99760.81;;;38.85;22.20
77299;BME280;66361;52.034;20.656;2023-06-26T06:57:49;99764.28;;;39.01;22.96
77299;BME280;66361;52.034;20.656;2023-06-26T07:01:52;99766.00;;;39.20;21.21
77299;BME280;66361;52.034;20.656;2023-06-26T07:05:55;99761.31;;;38.87;23.00
77299;BME280;66361;52.034;20.656;2023-06-26T07:09:59;99770.03;;;37.08;23.40
77299;BME280;66361;52.034;20.656;2023-06-26T07:14:04;99765.94;;;35.06;24.04
77299;BME280;66361;52.034;20.656;2023-06-26T07:18:07;99764.84;;;35.54;27.36
77299;BME280;66361;52.034;20.656;2023-06-26T07:22:10;99764.56;;;36.53;23.93
77299;BME280;66361;52.034;20.656;2023-06-26T07:26:14;99765.03;;;37.95;22.30
77299;BME280;66361;52.034;20.656;2023-06-26T07:30:24;99759.03;;;38.99;20.45
77299;BME280;66361;52.034;20.656;2023-06-26T07:34:27;99759.00;;;37.03;22.65
77299;BME280;66361;52.034;20.656;2023-06-26T07:38:31;99753.84;;;36.66;23.88
77299;BME280;66361;52.034;20.656;2023-06-26T07:42:34;99755.44;;;34.92;26.93
77299;BME280;66361;52.034;20.656;2023-06-26T07:46:39;99759.06;;;36.93;25.25
77299;BME280;66361;52.034;20.656;2023-06-26T07:50:45;99765.38;;;38.32;22.81
77299;BME280;66361;52.034;20.656;2023-06-26T07:54:49;99749.75;;;37.73;22.94
77299;BME280;66361;52.034;20.656;2023-06-26T07:58:55;99758.47;;;38.68;20.75
77299;BME280;66361;52.034;20.656;2023-06-26T08:03:00;99757.91;;;39.95;19.26
77299;BME280;66361;52.034;20.656;2023-06-26T08:07:04;99753.03;;;38.63;20.50
77299;BME280;66361;52.034;20.656;2023-06-26T08:11:10;99759.97;;;38.85;18.28
77299;BME280;66361;52.034;20.656;2023-06-26T08:15:14;99751.28;;;37.90;20.79
77299;BME280;66361;52.034;20.656;2023-06-26T08:19:18;99760.88;;;40.18;19.01
77299;BME280;66361;52.034;20.656;2023-06-26T08:23:23;99749.03;;;38.07;20.60
77299;BME280;66361;52.034;20.656;2023-06-26T08:27:27;99752.97;;;39.21;19.04
77299;BME280;66361;52.034;20.656;2023-06-26T08:31:30;99749.34;;;37.95;19.01
77299;BME280;66361;52.034;20.656;2023-06-26T08:35:37;99740.19;;;38.10;20.41
77299;BME280;66361;52.034;20.656;2023-06-26T08:39:40;99737.28;;;38.30;21.23
77299;BME280;66361;52.034;20.656;2023-06-26T08:43:43;99738.84;;;37.38;17.84
77299;BME280;66361;52.034;20.656;2023-06-26T08:47:48;99740.50;;;38.03;19.20
77299;BME280;66361;52.034;20.656;2023-06-26T08:52:02;99735.44;;;38.54;16.51
77299;BME280;66361;52.034;20.656;2023-06-26T08:56:10;99731.38;;;37.49;16.68
77299;BME280;66361;52.034;20.656;2023-06-26T09:00:16;99727.19;;;38.15;16.46
77299;BME280;66361;52.034;20.656;2023-06-26T09:04:19;99725.16;;;39.41;17.99
77299;BME280;66361;52.034;20.656;2023-06-26T09:08:24;99724.97;;;38.80;19.89
77299;BME280;66361;52.034;20.656;2023-06-26T09:12:27;99731.63;;;38.79;18.04
77299;BME280;66361;52.034;20.656;2023-06-26T09:16:30;99717.28;;;37.65;17.54
77299;BME280;66361;52.034;20.656;2023-06-26T09:20:33;99719.94;;;35.95;19.91
77299;BME280;66361;52.034;20.656;2023-06-26T09:24:40;99708.03;;;37.36;19.89
77299;BME280;66361;52.034;20.656;2023-06-26T09:28:44;99710.69;;;33.43;24.20
77299;BME280;66361;52.034;20.656;2023-06-26T09:32:47;99714.31;;;33.70;25.39
77299;BME280;66361;52.034;20.656;2023-06-26T09:36:53;99712.16;;;31.50;28.46
77299;BME280;66361;52.034;20.656;2023-06-26T09:40:59;99713.16;;;32.84;25.32
77299;BME280;66361;52.034;20.656;2023-06-26T09:45:06;99707.84;;;31.83;26.23
77299;BME280;66361;52.034;20.656;2023-06-26T09:49:10;99714.50;;;31.58;25.86
77299;BME280;66361;52.034;20.656;2023-06-26T09:53:15;99710.53;;;31.14;28.22
77299;BME280;66361;52.034;20.656;2023-06-26T09:57:21;99704.63;;;33.41;24.03
77299;BME280;66361;52.034;20.656;2023-06-26T10:01:24;99704.00;;;34.36;23.02
77299;BME280;66361;52.034;20.656;2023-06-26T10:05:28;99698.19;;;34.27;24.14
77299;BME280;66361;52.034;20.656;2023-06-26T10:09:31;99694.94;;;34.67;20.88
77299;BME280;66361;52.034;20.656;2023-06-26T10:13:39;99692.06;;;34.52;20.87
77299;BME280;66361;52.034;20.656;2023-06-26T10:17:48;99687.16;;;34.17;23.89
77299;BME280;66361;52.034;20.656;2023-06-26T10:21:52;99682.22;;;33.00;24.23
77299;BME280;66361;52.034;20.656;2023-06-26T10:25:58;99679.44;;;33.87;24.07
77299;BME280;66361;52.034;20.656;2023-06-26T10:30:11;99670.66;;;33.37;22.75
77299;BME280;66361;52.034;20.656;2023-06-26T10:34:14;99658.69;;;32.99;22.81
77299;BME280;66361;52.034;20.656;2023-06-26T10:38:18;99668.38;;;33.50;23.80
77299;BME280;66361;52.034;20.656;2023-06-26T10:42:34;99658.31;;;33.34;23.68
77299;BME280;66361;52.034;20.656;2023-06-26T10:46:50;99656.44;;;33.88;24.33
77299;BME280;66361;52.034;20.656;2023-06-26T10:50:55;99654.56;;;34.21;22.64
77299;BME280;66361;52.034;20.656;2023-06-26T10:54:57;99650.00;;;34.68;20.78
77299;BME280;66361;52.034;20.656;2023-06-26T10:59:12;99645.63;;;33.72;22.35
77299;BME280;66361;52.034;20.656;2023-06-26T11:03:29;99641.09;;;33.12;23.58
77299;BME280;66361;52.034;20.656;2023-06-26T11:07:33;99641.72;;;33.94;24.81
77299;BME280;66361;52.034;20.656;2023-06-26T11:11:58;99633.13;;;32.34;23.38
77299;BME280;66361;52.034;20.656;2023-06-26T11:16:07;99641.41;;;32.55;25.59
77299;BME280;66361;52.034;20.656;2023-06-26T11:20:15;99627.66;;;32.34;25.37
77299;BME280;66361;52.034;20.656;2023-06-26T11:24:20;99632.09;;;31.45;24.98
77299;BME280;66361;52.034;20.656;2023-06-26T11:28:22;99619.28;;;31.90;23.80
77299;BME280;66361;52.034;20.656;2023-06-26T11:32:26;99617.69;;;31.61;26.96
77299;BME280;66361;52.034;20.656;2023-06-26T11:36:31;99618.28;;;32.46;25.16
77299;BME280;66361;52.034;20.656;2023-06-26T11:40:38;99610.28;;;32.78;24.29
77299;BME280;66361;52.034;20.656;2023-06-26T11:44:47;99611.69;;;32.81;23.40
77299;BME280;66361;52.034;20.656;2023-06-26T11:48:50;99609.03;;;32.31;24.73
77299;BME280;66361;52.034;20.656;2023-06-26T11:52:55;99600.78;;;32.26;24.71
77299;BME280;66361;52.034;20.656;2023-06-26T11:56:59;99603.47;;;32.59;25.74
77299;BME280;66361;52.034;20.656;2023-06-26T12:01:04;99602.41;;;33.25;23.93
77299;BME280;66361;52.034;20.656;2023-06-26T12:05:08;99591.28;;;32.88;23.79
77299;BME280;66361;52.034;20.656;2023-06-26T12:09:14;99589.75;;;32.37;26.83
77299;BME280;66361;52.034;20.656;2023-06-26T12:13:20;99583.34;;;32.48;24.98
77299;BME280;66361;52.034;20.656;2023-06-26T12:17:23;99575.69;;;32.12;24.84
77299;BME280;66361;52.034;20.656;2023-06-26T12:21:48;99587.22;;;31.24;28.28
77299;BME280;66361;52.034;20.656;2023-06-26T12:25:55;99585.16;;;30.51;26.31
77299;BME280;66361;52.034;20.656;2023-06-26T12:29:58;99584.88;;;30.88;27.67
77299;BME280;66361;52.034;20.656;2023-06-26T12:34:02;99579.75;;;31.76;28.25
77299;BME280;66361;52.034;20.656;2023-06-26T12:38:07;99568.25;;;31.74;26.30
77299;BME280;66361;52.034;20.656;2023-06-26T12:42:15;99574.84;;;31.61;27.17
77299;BME280;66361;52.034;20.656;2023-06-26T12:46:18;99564.59;;;30.95;26.51
77299;BME280;66361;52.034;20.656;2023-06-26T12:50:21;99560.28;;;30.36;28.71
77299;BME280;66361;52.034;20.656;2023-06-26T12:54:24;99557.34;;;30.49;27.01
77299;BME280;66361;52.034;20.656;2023-06-26T12:58:28;99549.69;;;30.74;27.27
77299;BME280;66361;52.034;20.656;2023-06-26T13:02:31;99544.72;;;31.11;29.54
77299;BME280;66361;52.034;20.656;2023-06-26T13:06:35;99540.28;;;31.22;27.22
77299;BME280;66361;52.034;20.656;2023-06-26T13:10:38;99528.63;;;31.55;26.76
77299;BME280;66361;52.034;20.656;2023-06-26T13:14:43;99528.34;;;30.83;25.38
77299;BME280;66361;52.034;20.656;2023-06-26T13:18:50;99519.56;;;30.93;24.90
77299;BME280;66361;52.034;20.656;2023-06-26T13:22:53;99519.16;;;31.01;26.54
77299;BME280;66361;52.034;20.656;2023-06-26T13:26:56;99518.91;;;30.62;26.91
77299;BME280;66361;52.034;20.656;2023-06-26T13:31:00;99506.88;;;30.98;27.72
77299;BME280;66361;52.034;20.656;2023-06-26T13:35:04;99507.38;;;30.32;29.96
77299;BME280;66361;52.034;20.656;2023-06-26T13:39:08;99509.03;;;30.21;28.39
77299;BME280;66361;52.034;20.656;2023-06-26T13:43:14;99498.84;;;30.40;27.41
77299;BME280;66361;52.034;20.656;2023-06-26T13:47:19;99489.63;;;30.18;26.73
77299;BME280;66361;52.034;20.656;2023-06-26T13:51:22;99484.53;;;30.10;29.82
77299;BME280;66361;52.034;20.656;2023-06-26T13:55:26;99491.09;;;30.60;28.27
77299;BME280;66361;52.034;20.656;2023-06-26T13:59:29;99487.56;;;30.48;29.50
77299;BME280;66361;52.034;20.656;2023-06-26T14:03:33;99472.16;;;30.65;26.79
77299;BME280;66361;52.034;20.656;2023-06-26T14:07:36;99471.72;;;30.85;27.94
77299;BME280;66361;52.034;20.656;2023-06-26T14:11:39;99469.66;;;30.64;29.41
77299;BME280;66361;52.034;20.656;2023-06-26T14:15:43;99465.41;;;30.85;25.86
77299;BME280;66361;52.034;20.656;2023-06-26T14:19:47;99456.22;;;30.46;26.96
77299;BME280;66361;52.034;20.656;2023-06-26T14:23:51;99450.63;;;30.52;27.10
77299;BME280;66361;52.034;20.656;2023-06-26T14:27:55;99442.00;;;30.44;26.43
77299;BME280;66361;52.034;20.656;2023-06-26T14:31:58;99445.59;;;30.33;26.01
77299;BME280;66361;52.034;20.656;2023-06-26T14:36:02;99440.75;;;30.11;27.96
77299;BME280;66361;52.034;20.656;2023-06-26T14:40:07;99426.34;;;29.88;27.81
77299;BME280;66361;52.034;20.656;2023-06-26T14:44:10;99416.31;;;29.76;28.02
77299;BME280;66361;52.034;20.656;2023-06-26T14:48:13;99420.31;;;29.97;27.46
77299;BME280;66361;52.034;20.656;2023-06-26T14:52:17;99418.19;;;29.88;28.22
77299;BME280;66361;52.034;20.656;2023-06-26T14:56:21;99402.34;;;29.73;27.54
77299;BME280;66361;52.034;20.656;2023-06-26T15:00:24;99406.97;;;29.72;26.68
77299;BME280;66361;52.034;20.656;2023-06-26T15:04:28;99403.53;;;29.65;27.37
77299;BME280;66361;52.034;20.656;2023-06-26T15:08:33;99389.09;;;29.53;26.74
77299;BME280;66361;52.034;20.656;2023-06-26T15:12:36;99392.88;;;29.29;26.37
77299;BME280;66361;52.034;20.656;2023-06-26T15:16:39;99384.25;;;29.20;28.29
77299;BME280;66361;52.034;20.656;2023-06-26T15:20:44;99377.97;;;29.20;27.72
77299;BME280;66361;52.034;20.656;2023-06-26T15:24:49;99374.13;;;28.98;28.23
77299;BME280;66361;52.034;20.656;2023-06-26T15:28:52;99372.59;;;29.02;28.07
77299;BME280;66361;52.034;20.656;2023-06-26T15:32:56;99370.59;;;28.85;29.06
77299;BME280;66361;52.034;20.656;2023-06-26T15:36:59;99361.69;;;28.67;29.03
77299;BME280;66361;52.034;20.656;2023-06-26T15:41:03;99364.78;;;28.70;28.86
77299;BME280;66361;52.034;20.656;2023-06-26T15:45:07;99352.00;;;28.59;31.06
77299;BME280;66361;52.034;20.656;2023-06-26T15:49:10;99354.06;;;28.46;28.38
77299;BME280;66361;52.034;20.656;2023-06-26T15:53:16;99352.19;;;28.28;27.42
77299;BME280;66361;52.034;20.656;2023-06-26T15:57:21;99339.28;;;28.23;30.75
77299;BME280;66361;52.034;20.656;2023-06-26T16:01:27;99339.13;;;28.07;29.52
77299;BME280;66361;52.034;20.656;2023-06-26T16:05:30;99347.19;;;27.95;29.10
77299;BME280;66361;52.034;20.656;2023-06-26T16:09:33;99343.13;;;27.86;29.99
77299;BME280;66361;52.034;20.656;2023-06-26T16:13:37;99335.88;;;27.80;29.18
77299;BME280;66361;52.034;20.656;2023-06-26T16:17:44;99337.97;;;27.78;29.61
77299;BME280;66361;52.034;20.656;2023-06-26T16:21:47;99329.63;;;27.61;29.78
77299;BME280;66361;52.034;20.656;2023-06-26T16:25:50;99333.84;;;27.57;30.50
77299;BME280;66361;52.034;20.656;2023-06-26T16:29:56;99336.81;;;27.31;35.24
77299;BME280;66361;52.034;20.656;2023-06-26T16:34:01;99332.72;;;27.22;32.44
77299;BME280;66361;52.034;20.656;2023-06-26T16:38:05;99325.47;;;27.16;32.30
77299;BME280;66361;52.034;20.656;2023-06-26T16:42:09;99326.69;;;26.95;34.56
77299;BME280;66361;52.034;20.656;2023-06-26T16:46:15;99324.81;;;26.95;32.91
77299;BME280;66361;52.034;20.656;2023-06-26T16:50:20;99332.78;;;26.90;34.16
77299;BME280;66361;52.034;20.656;2023-06-26T16:54:22;99330.38;;;26.76;34.50
77299;BME280;66361;52.034;20.656;2023-06-26T16:58:26;99329.03;;;26.67;33.28
77299;BME280;66361;52.034;20.656;2023-06-26T17:02:30;99329.59;;;26.69;33.15
77299;BME280;66361;52.034;20.656;2023-06-26T17:06:34;99335.03;;;26.69;33.94
77299;BME280;66361;52.034;20.656;2023-06-26T17:10:40;99341.13;;;26.64;34.57
77299;BME280;66361;52.034;20.656;2023-06-26T17:14:44;99343.88;;;26.51;35.54
77299;BME280;66361;52.034;20.656;2023-06-26T17:18:48;99337.72;;;26.37;36.82
77299;BME280;66361;52.034;20.656;2023-06-26T17:22:52;99330.53;;;26.18;38.13
77299;BME280;66361;52.034;20.656;2023-06-26T17:27:07;99345.19;;;26.04;36.89
77299;BME280;66361;52.034;20.656;2023-06-26T17:31:10;99345.88;;;25.93;39.45
77299;BME280;66361;52.034;20.656;2023-06-26T17:35:15;99345.25;;;25.78;38.94
77299;BME280;66361;52.034;20.656;2023-06-26T17:39:18;99338.25;;;25.57;40.25
77299;BME280;66361;52.034;20.656;2023-06-26T17:43:22;99331.41;;;25.41;40.31
77299;BME280;66361;52.034;20.656;2023-06-26T17:47:25;99329.81;;;25.21;41.60
77299;BME280;66361;52.034;20.656;2023-06-26T17:51:31;99331.03;;;25.05;41.82
77299;BME280;66361;52.034;20.656;2023-06-26T17:55:34;99324.00;;;24.84;42.23
77299;BME280;66361;52.034;20.656;2023-06-26T17:59:37;99319.19;;;24.60;43.52
77299;BME280;66361;52.034;20.656;2023-06-26T18:03:40;99317.69;;;24.38;44.98
77299;BME280;66361;52.034;20.656;2023-06-26T18:07:44;99320.56;;;24.17;46.89
77299;BME280;66361;52.034;20.656;2023-06-26T18:12:05;99307.00;;;23.90;49.45
77299;BME280;66361;52.034;20.656;2023-06-26T18:16:09;99311.00;;;23.67;52.04
77299;BME280;66361;52.034;20.656;2023-06-26T18:20:12;99316.25;;;23.40;53.01
77299;BME280;66361;52.034;20.656;2023-06-26T18:24:17;99313.78;;;23.11;54.12
77299;BME280;66361;52.034;20.656;2023-06-26T18:28:20;99319.97;;;22.84;54.80
77299;BME280;66361;52.034;20.656;2023-06-26T18:32:24;99317.94;;;22.64;54.73
77299;BME280;66361;52.034;20.656;2023-06-26T18:36:27;99315.88;;;22.45;56.63
77299;BME280;66361;52.034;20.656;2023-06-26T18:40:33;99316.22;;;22.36;56.23
77299;BME280;66361;52.034;20.656;2023-06-26T18:44:36;99309.69;;;22.24;62.67
77299;BME280;66361;52.034;20.656;2023-06-26T18:48:39;99304.97;;;22.11;61.53
77299;BME280;66361;52.034;20.656;2023-06-26T18:52:42;99312.56;;;22.07;68.13
77299;BME280;66361;52.034;20.656;2023-06-26T18:56:46;99304.38;;;21.94;64.63
77299;BME280;66361;52.034;20.656;2023-06-26T19:00:50;99316.44;;;21.84;65.69
77299;BME280;66361;52.034;20.656;2023-06-26T19:04:52;99313.56;;;21.70;67.92
77299;BME280;66361;52.034;20.656;2023-06-26T19:08:55;99306.47;;;21.48;63.57
77299;BME280;66361;52.034;20.656;2023-06-26T19:13:00;99309.34;;;21.32;66.13
77299;BME280;66361;52.034;20.656;2023-06-26T19:17:04;99313.38;;;21.13;66.62
77299;BME280;66361;52.034;20.656;2023-06-26T19:21:07;99306.34;;;20.98;67.78
77299;BME280;66361;52.034;20.656;2023-06-26T19:25:10;99305.22;;;20.92;69.55
77299;BME280;66361;52.034;20.656;2023-06-26T19:29:16;99315.00;;;20.85;71.24
77299;BME280;66361;52.034;20.656;2023-06-26T19:33:19;99302.69;;;20.76;71.60
77299;BME280;66361;52.034;20.656;2023-06-26T19:37:22;99308.31;;;20.66;70.20
77299;BME280;66361;52.034;20.656;2023-06-26T19:41:25;99298.00;;;20.55;72.39
77299;BME280;66361;52.034;20.656;2023-06-26T19:45:30;99294.41;;;20.40;72.59
77299;BME280;66361;52.034;20.656;2023-06-26T19:49:34;99283.47;;;20.27;72.65
77299;BME280;66361;52.034;20.656;2023-06-26T19:53:37;99284.47;;;20.26;72.77
77299;BME280;66361;52.034;20.656;2023-06-26T19:57:41;99287.44;;;20.31;76.60
77299;BME280;66361;52.034;20.656;2023-06-26T20:01:46;99287.16;;;20.26;76.09
77299;BME280;66361;52.034;20.656;2023-06-26T20:05:49;99275.50;;;20.19;74.06
77299;BME280;66361;52.034;20.656;2023-06-26T20:09:52;99277.34;;;20.18;76.03
77299;BME280;66361;52.034;20.656;2023-06-26T20:13:55;99273.16;;;20.16;76.41
77299;BME280;66361;52.034;20.656;2023-06-26T20:18:00;99263.84;;;20.12;75.42
77299;BME280;66361;52.034;20.656;2023-06-26T20:22:04;99250.44;;;20.12;75.44
77299;BME280;66361;52.034;20.656;2023-06-26T20:26:07;99241.63;;;20.03;76.67
77299;BME280;66361;52.034;20.656;2023-06-26T20:30:10;99248.22;;;19.93;77.21
77299;BME280;66361;52.034;20.656;2023-06-26T20:34:15;99235.66;;;19.70;77.99
77299;BME280;66361;52.034;20.656;2023-06-26T20:38:18;99228.38;;;19.48;76.24
77299;BME280;66361;52.034;20.656;2023-06-26T20:42:21;99229.78;;;19.36;76.50
77299;BME280;66361;52.034;20.656;2023-06-26T20:46:25;99235.66;;;19.23;77.78
77299;BME280;66361;52.034;20.656;2023-06-26T20:50:35;99240.88;;;19.17;77.38
77299;BME280;66361;52.034;20.656;2023-06-26T20:54:38;99240.03;;;19.16;77.67
77299;BME280;66361;52.034;20.656;2023-06-26T20:58:41;99236.50;;;19.24;78.90
77299;BME280;66361;52.034;20.656;2023-06-26T21:02:44;99229.97;;;19.26;80.00
77299;BME280;66361;52.034;20.656;2023-06-26T21:06:49;99234.34;;;19.19;78.13
77299;BME280;66361;52.034;20.656;2023-06-26T21:10:52;99234.22;;;19.13;78.54
77299;BME280;66361;52.034;20.656;2023-06-26T21:14:54;99226.41;;;19.03;81.63
77299;BME280;66361;52.034;20.656;2023-06-26T21:18:57;99233.59;;;18.95;81.22